Station: Lockhart River  

  Atmospheric Gas Attenuation - ITU Rec 676-11   ----------------- dB/100km -----------------
Date Time Temp RH % AH g/m3 Dew Point Wind Direction Speed kph Gust kph Barometer mB Rainfall Since 9am 24GHz 47GHz 76GHz 122GHz 134GHz 241GHz
08/05 12:40 29.2 68 19.75 22.7 35 43 1011 0 42.1 39.4 76.3 201.9 223.2 775.9
08/05 12:30 28.9 71 20.29 23.1 30 43 1011.3 0 43.3 40.5 79.1 209.3 232.2 807.2
08/05 12:20 29 71 20.4 23.2 22 26 1011.5 0 43.5 40.7 79.5 210.4 233.6 812.0
08/05 12:10 28.7 71 20.06 23.1 32 37 1011.7 0 42.8 40.2 78.2 207.1 229.5 797.5
08/05 12:00 29.1 77 22.24 24.7 24 37 1011.9 0 47.4 44.1 88.1 233.3 261.7 909.7
08/05 11:50 28.8 71 20.17 23.2 30 37 1012.1 0 43.0 40.4 78.7 208.2 230.9 802.4
08/05 11:40 28.5 75 20.96 23.6 26 33 1012.2 0 44.7 42.0 82.7 218.9 243.9 847.6
08/05 11:30 29.5 71 20.96 23.7 28 39 1012.3 0 44.6 41.5 81.6 216.0 240.6 836.5
08/05 11:20 28.7 71 20.06 22.9 30 39 1012.4 0 42.8 40.2 78.3 207.2 229.6 797.9
08/05 11:10 29.1 70 20.22 23.1 28 33 1012.5 0 43.1 40.3 78.6 208.1 230.8 802.1
08/05 11:00 28.8 71 20.17 23.2 24 39 1012.6 0 43.0 40.4 78.7 208.3 230.9 802.7
08/05 10:50 28.8 71 20.17 23.2 22 30 1012.7 0 43.0 40.4 78.7 208.3 231.0 802.8
08/05 10:40 29.2 72 20.91 23.6 22 24 1012.7 0 44.5 41.6 81.7 216.3 240.9 837.4
08/05 10:30 28.8 71 20.17 23.2 26 39 1012.7 0 43.0 40.4 78.7 208.3 231.0 802.8
08/05 10:20 28.5 74 20.69 23.4 22 26 1012.8 0 44.2 41.5 81.5 215.6 239.8 833.5
08/05 10:10 28.6 75 21.08 23.9 22 24 1012.8 0 45.0 42.2 83.2 220.2 245.5 853.2
08/05 10:00 28.3 72 19.91 22.8 30 39 1012.8 0 42.5 40.1 78.0 206.5 228.6 794.5
08/05 09:50 28.3 73 20.18 23 30 33 1012.7 0 43.1 40.6 79.3 209.8 232.7 808.6
08/05 09:40 28.2 74 20.35 23.1 28 35 1012.7 0 43.5 41.0 80.2 212.2 235.5 818.7
08/05 09:30 28.4 75 20.85 23.5 22 35 1012.7 0 44.5 41.9 82.3 217.9 242.6 843.1
08/05 09:20 28.1 74 20.24 23.2 24 30 1012.7 0 43.3 40.9 79.8 211.1 234.2 813.9
08/05 09:10 27.6 80 21.28 23.8 22 24 1012.6 0 45.5 43.1 85.2 225.7 251.9 875.4
08/05 09:00 27.3 80 20.93 23.5 19 30 1012.5 0 44.8 42.6 83.9 222.1 247.4 859.7
08/05 08:50 26.9 83 21.24 23.8 15 19 1012.4 0 45.5 43.4 85.8 227.2 253.6 881.3
08/05 08:40 26.7 87 22.02 24.4 11 11 1012.5 0 47.2 45.0 89.9 238.1 266.9 927.2
08/05 08:30 25.8 87 20.95 23.5 0 0 1012.5 0 45.0 43.4 85.7 226.8 252.8 878.2
08/05 08:20 25.2 90 20.95 23.4 0 0 1012.4 0 45.1 43.7 86.4 228.6 254.8 885.2
08/05 08:10 24.8 92 20.94 23.4 0 0 1012.4 0 45.1 43.9 86.8 229.7 256.0 889.4
08/05 08:00 24.3 93 20.58 23.1 0 0 1012.4 0 44.4 43.4 85.6 226.5 251.9 875.0
08/05 07:50 24.1 94 20.57 23.1 0 0 1012.4 0 44.4 43.5 85.7 226.9 252.4 876.7
08/05 07:40 23.8 95 20.43 22.9 0 0 1012.4 0 44.2 43.4 85.4 226.0 251.2 872.3
08/05 07:30 23.8 97 20.86 23.3 0 0 1012.3 0 45.1 44.3 87.5 231.7 258.2 896.7
08/05 07:20 23.5 96 20.3 22.8 0 0 1012.3 0 43.9 43.3 85.1 225.1 250.1 868.4
08/05 07:10 23.3 96 20.07 22.6 0 0 1012.3 0 43.4 42.9 84.2 222.7 247.0 857.7
08/05 07:00 23.2 96 19.96 22.5 0 0 1012.1 0 43.2 42.8 83.7 221.5 245.5 852.5
08/05 06:50 23.2 95 19.75 22.4 0 0 1012 0 42.8 42.3 82.7 218.7 242.1 840.7
08/05 06:40 23.3 95 19.86 22.5 0 0 1011.9 0 43.0 42.5 83.1 219.9 243.5 845.7
08/05 06:30 23.4 94 19.76 22.4 0 6 1011.8 0 42.8 42.2 82.5 218.2 241.6 838.9
08/05 06:20 23.7 93 19.89 22.5 4 6 1011.7 0 43.0 42.3 82.8 219.0 242.7 842.7
08/05 06:10 23.9 92 19.9 22.5 6 7 1011.7 0 43.0 42.3 82.6 218.6 242.2 841.0
08/05 06:00 23.9 93 20.12 22.7 6 7 1011.5 0 43.5 42.7 83.7 221.4 245.7 853.2
08/05 05:50 23.9 93 20.12 22.7 6 6 1011.5 0 43.5 42.7 83.7 221.4 245.7 853.2
08/05 05:40 23.9 93 20.12 22.7 6 7 1011.5 0 43.5 42.7 83.7 221.4 245.7 853.2
08/05 05:30 23.9 93 20.12 22.7 6 7 1011.4 0 43.5 42.7 83.7 221.4 245.7 853.1
08/05 05:20 23.9 93 20.12 22.7 6 6 1011.3 0 43.5 42.7 83.7 221.4 245.6 853.1
08/05 05:10 23.9 93 20.12 22.7 6 6 1011.3 0 43.5 42.7 83.7 221.4 245.6 853.1
08/05 05:00 23.9 93 20.12 22.7 6 7 1011.3 0 43.5 42.7 83.7 221.4 245.6 853.1
08/05 04:50 23.9 94 20.33 22.9 4 6 1011.4 0 43.9 43.1 84.7 224.2 249.1 864.9
08/05 04:40 23.8 94 20.22 22.8 0 0 1011.4 0 43.7 42.9 84.3 223.0 247.6 859.9
08/05 04:30 23.9 93 20.12 22.7 0 6 1011.4 0 43.5 42.7 83.7 221.4 245.7 853.1
08/05 04:20 23.9 93 20.12 22.7 2 6 1011.4 0 43.5 42.7 83.7 221.4 245.7 853.1
08/05 04:10 24 93 20.23 22.8 0 0 1011.4 0 43.7 42.8 84.1 222.6 247.1 858.2
08/05 04:00 23.9 93 20.12 22.7 0 0 1011.3 0 43.5 42.7 83.7 221.4 245.6 853.1
08/05 03:50 23.9 93 20.12 22.7 0 0 1011.4 0 43.5 42.7 83.7 221.4 245.7 853.1
08/05 03:40 24 93 20.23 22.8 7 9 1011.4 0 43.7 42.8 84.1 222.6 247.1 858.2
08/05 03:30 24 93 20.23 22.8 6 7 1011.3 0 43.7 42.8 84.1 222.6 247.1 858.1
08/05 03:20 24 93 20.23 22.8 6 7 1011.3 0 43.7 42.8 84.1 222.6 247.1 858.1
08/05 03:10 24.1 93 20.35 22.9 7 9 1011.4 0 44.0 43.0 84.6 223.9 248.7 863.8
08/05 03:00 24.1 93 20.35 22.9 6 7 1011.3 0 44.0 43.0 84.6 223.8 248.7 863.7
08/05 02:50 24.2 93 20.46 23 6 7 1011.4 0 44.2 43.2 85.0 225.0 250.1 868.8
08/05 02:40 24.1 93 20.35 22.9 9 9 1011.4 0 44.0 43.0 84.6 223.9 248.7 863.8
08/05 02:30 24.1 93 20.35 22.9 7 9 1011.4 0 44.0 43.0 84.6 223.9 248.7 863.8
08/05 02:20 24.1 93 20.35 22.9 7 7 1011.4 0 44.0 43.0 84.6 223.9 248.7 863.8
08/05 02:10 24.2 93 20.46 23 7 9 1011.5 0 44.2 43.2 85.0 225.0 250.2 868.8
08/05 02:00 24.2 93 20.46 23 7 9 1011.6 0 44.2 43.2 85.0 225.0 250.2 868.9
08/05 01:50 24.4 92 20.47 23 9 9 1011.6 0 44.2 43.1 84.9 224.6 249.7 867.1
08/05 01:40 24.6 90 20.26 22.8 7 9 1011.7 0 43.7 42.6 83.6 221.2 245.6 853.2
08/05 01:30 25.2 87 20.25 22.9 15 20 1011.8 0 43.6 42.3 82.9 219.4 243.5 845.8
08/05 01:20 25.4 87 20.48 23.1 13 15 1011.9 0 44.1 42.6 83.8 221.8 246.5 856.3
08/05 01:10 25.2 88 20.49 23.1 15 17 1012 0 44.1 42.8 84.1 222.5 247.4 859.2
08/05 01:00 25.1 89 20.6 23.2 13 20 1012 0 44.4 43.0 84.7 224.2 249.5 866.5
08/05 00:50 24.5 92 20.59 23.1 9 11 1012.1 0 44.4 43.3 85.4 225.9 251.3 873.0
08/05 00:40 24.3 92 20.36 22.9 7 7 1012.2 0 43.9 43.0 84.5 223.5 248.3 862.5
08/05 00:30 24.1 94 20.57 23.1 7 9 1012.3 0 44.4 43.5 85.7 226.9 252.4 876.7
08/05 00:20 23.8 95 20.43 22.9 6 7 1012.4 0 44.2 43.4 85.4 226.0 251.2 872.3
08/05 00:10 23.7 96 20.53 23 7 7 1012.5 0 44.4 43.7 86.0 227.6 253.2 879.2
08/05 00:00 23.4 96 20.19 22.7 0 0 1012.6 0 43.7 43.1 84.7 224.0 248.7 863.5
07/05 23:50 23.5 96 20.3 22.8 0 0 1012.7 0 43.9 43.3 85.1 225.2 250.1 868.7
07/05 23:40 23.7 95 20.32 22.9 0 0 1012.8 0 43.9 43.2 85.0 224.9 249.8 867.5
07/05 23:30 23.7 95 20.32 22.9 0 6 1012.9 0 43.9 43.3 85.0 224.9 249.8 867.6
07/05 23:20 23.7 95 20.32 22.9 0 0 1012.9 0 43.9 43.3 85.0 224.9 249.8 867.6
07/05 23:10 23.7 95 20.32 22.9 0 0 1012.9 0 43.9 43.3 85.0 224.9 249.8 867.6
07/05 23:00 23.7 94 20.11 22.7 6 7 1013 0 43.5 42.8 84.0 222.1 246.4 855.8
07/05 22:50 23.6 95 20.2 22.8 6 6 1013 0 43.7 43.1 84.5 223.6 248.2 862.0
07/05 22:40 23.5 96 20.3 22.8 0 0 1013.1 0 43.9 43.3 85.1 225.3 250.2 868.9
07/05 22:30 23.4 96 20.19 22.7 0 0 1013.2 0 43.7 43.2 84.7 224.1 248.8 863.9
07/05 22:20 23.4 96 20.19 22.7 0 0 1013.3 0 43.7 43.2 84.7 224.2 248.8 863.9
07/05 22:10 23.3 96 20.07 22.6 0 0 1013.4 0 43.4 43.0 84.2 222.9 247.2 858.4
07/05 22:00 23.3 96 20.07 22.6 0 0 1013.4 0 43.4 43.0 84.2 222.9 247.2 858.4
07/05 21:50 23.3 96 20.07 22.6 0 0 1013.3 0 43.4 43.0 84.2 222.9 247.2 858.3
07/05 21:40 23.3 95 19.86 22.5 0 0 1013.4 0 43.0 42.6 83.2 220.1 243.8 846.5
07/05 21:30 23.2 94 19.54 22.2 0 0 1013.3 0 42.3 42.0 81.7 216.2 238.9 829.6
07/05 21:20 23.4 93 19.55 22.2 0 0 1013.3 0 42.3 41.9 81.5 215.7 238.4 828.0
07/05 21:10 24 92 20.02 22.6 0 0 1013.2 0 43.2 42.5 83.2 220.1 244.0 847.4
07/05 21:00 23.9 92 19.9 22.5 6 7 1013.1 0 43.0 42.3 82.7 218.8 242.4 841.8
07/05 20:50 23.9 92 19.9 22.5 6 7 1013.1 0 43.0 42.3 82.7 218.8 242.4 841.8
07/05 20:40 24.3 90 19.92 22.6 6 6 1013 0 43.0 42.2 82.3 217.9 241.4 838.4
07/05 20:30 24.4 90 20.03 22.7 7 9 1012.9 0 43.2 42.3 82.8 219.0 242.8 843.3
07/05 20:20 24.5 90 20.14 22.7 9 9 1012.7 0 43.4 42.5 83.2 220.1 244.2 848.2
07/05 20:10 24.6 89 20.03 22.7 9 9 1012.6 0 43.2 42.2 82.5 218.4 242.1 840.9

Last Refresh: 08-May-2026 12:10:12

Bureau of Meteorology